createdAt,value
2019-03-03T00:00:55.658Z,95.10
2019-03-03T00:02:00.587Z,95.30
2019-03-03T00:03:05.109Z,95.70
2019-03-03T00:04:09.594Z,95.80
2019-03-03T00:05:14.420Z,95.90
2019-03-03T00:06:18.767Z,96.00
2019-03-03T00:07:30.296Z,96.20
2019-03-03T00:08:34.713Z,96.20
2019-03-03T00:09:39.131Z,96.40
2019-03-03T00:10:43.629Z,96.50
2019-03-03T00:11:50.492Z,96.60
2019-03-03T00:12:54.900Z,96.70
2019-03-03T00:13:59.261Z,96.70
2019-03-03T00:15:04.242Z,96.80
2019-03-03T00:16:09.067Z,96.80
2019-03-03T00:17:13.571Z,96.90
2019-03-03T00:18:17.983Z,97.00
2019-03-03T00:19:22.331Z,97.10
2019-03-03T00:20:26.731Z,97.00
2019-03-03T00:21:31.228Z,97.00
2019-03-03T00:22:35.645Z,97.00
2019-03-03T00:23:40.003Z,97.00
2019-03-03T00:24:44.430Z,97.00
2019-03-03T00:25:48.752Z,96.90
2019-03-03T00:26:53.139Z,96.90
2019-03-03T00:27:57.543Z,96.90
2019-03-03T00:29:01.892Z,96.70
2019-03-03T00:30:06.762Z,96.80
2019-03-03T00:31:11.549Z,96.70
2019-03-03T00:32:16.082Z,96.70
2019-03-03T00:33:20.511Z,96.70
2019-03-03T00:34:24.903Z,96.70
2019-03-03T00:35:31.617Z,96.80
2019-03-03T00:36:54.282Z,96.80
2019-03-03T00:38:03.793Z,96.80
2019-03-03T00:39:19.199Z,96.80
2019-03-03T00:40:49.592Z,96.80
2019-03-03T00:42:16.256Z,96.70
2019-03-03T00:43:32.200Z,96.60
2019-03-03T00:44:54.234Z,96.60
2019-03-03T00:46:08.564Z,96.60
2019-03-03T00:47:19.231Z,96.60
2019-03-03T00:48:30.009Z,96.60
2019-03-03T00:49:45.991Z,96.60
2019-03-03T00:51:15.264Z,96.60
2019-03-03T00:52:28.322Z,96.60
2019-03-03T00:53:51.620Z,96.50
2019-03-03T00:55:21.399Z,96.60
2019-03-03T00:56:33.412Z,96.50
2019-03-03T00:57:55.720Z,96.50
2019-03-03T00:59:09.168Z,96.50
2019-03-03T01:00:30.173Z,96.40
2019-03-03T01:01:45.842Z,96.30
2019-03-03T01:02:59.104Z,96.30
2019-03-03T01:04:18.647Z,96.20
2019-03-03T01:05:30.108Z,96.30
2019-03-03T01:06:41.178Z,96.20
2019-03-03T01:08:20.154Z,96.10
2019-03-03T01:09:48.262Z,96.30
2019-03-03T01:11:00.787Z,95.90
2019-03-03T01:12:27.708Z,95.80
2019-03-03T01:13:42.323Z,95.70
2019-03-03T01:15:14.682Z,95.60
2019-03-03T01:16:39.080Z,95.50
2019-03-03T01:18:14.846Z,95.40
2019-03-03T01:19:35.700Z,95.40
2019-03-03T01:20:59.146Z,95.30
2019-03-03T01:22:28.822Z,95.20
2019-03-03T01:24:03.293Z,95.20
2019-03-03T01:25:07.788Z,95.10
2019-03-03T01:26:12.137Z,95.00
2019-03-03T01:27:16.623Z,94.90
2019-03-03T01:28:20.991Z,94.80
2019-03-03T01:29:25.519Z,94.80
2019-03-03T01:30:30.036Z,94.80
2019-03-03T01:31:34.749Z,94.70
2019-03-03T01:32:39.366Z,94.70
2019-03-03T01:33:43.931Z,94.70
2019-03-03T01:34:48.354Z,94.60
2019-03-03T01:35:52.670Z,94.60
2019-03-03T01:36:57.212Z,94.60
2019-03-03T01:38:01.575Z,94.50
2019-03-03T01:39:06.711Z,94.40
2019-03-03T01:40:11.247Z,94.00
2019-03-03T01:41:15.654Z,94.20
2019-03-03T01:42:20.013Z,94.10
2019-03-03T01:43:24.443Z,94.00
2019-03-03T01:44:28.782Z,93.90
2019-03-03T01:45:33.186Z,94.10
2019-03-03T01:46:37.635Z,94.10
2019-03-03T01:47:42.159Z,93.70
2019-03-03T01:48:46.613Z,93.70
2019-03-03T01:49:51.140Z,93.60
2019-03-03T01:50:55.595Z,93.60
2019-03-03T01:52:00.178Z,93.60
2019-03-03T01:53:04.681Z,93.50
2019-03-03T01:54:09.110Z,93.50
2019-03-03T01:55:13.637Z,93.50
2019-03-03T01:56:18.039Z,93.40
2019-03-03T01:57:22.463Z,93.20
2019-03-03T01:58:26.982Z,93.00
2019-03-03T01:59:31.582Z,92.80
2019-03-03T02:00:36.065Z,92.60
2019-03-03T02:01:40.510Z,92.50
2019-03-03T02:02:44.949Z,92.50
2019-03-03T02:03:49.323Z,92.50
2019-03-03T02:04:53.766Z,92.40
2019-03-03T02:05:58.199Z,92.40
2019-03-03T02:07:02.603Z,92.40
2019-03-03T02:08:07.500Z,92.50
2019-03-03T02:09:12.738Z,92.40
2019-03-03T02:10:19.267Z,92.20
2019-03-03T02:11:23.703Z,92.20
2019-03-03T02:12:28.193Z,92.00
2019-03-03T02:13:32.539Z,92.00
2019-03-03T02:14:36.935Z,91.90
2019-03-03T02:15:41.486Z,91.90
2019-03-03T02:16:46.137Z,91.90
2019-03-03T02:17:50.656Z,92.30
2019-03-03T02:18:55.025Z,91.90
2019-03-03T02:19:59.476Z,92.00
2019-03-03T02:21:03.977Z,92.00
2019-03-03T02:22:08.654Z,92.00
2019-03-03T02:23:13.078Z,92.10
2019-03-03T02:24:17.863Z,92.10
2019-03-03T02:25:22.330Z,92.00
2019-03-03T02:26:26.793Z,92.00
2019-03-03T02:27:31.430Z,92.00
2019-03-03T02:28:35.913Z,92.10
2019-03-03T02:29:40.338Z,92.00
2019-03-03T02:30:44.897Z,92.00
2019-03-03T02:31:49.495Z,92.00
2019-03-03T02:32:53.925Z,92.00
2019-03-03T02:33:58.351Z,92.20
2019-03-03T02:35:02.754Z,91.90
2019-03-03T02:36:07.156Z,91.80
2019-03-03T02:37:11.845Z,91.80
2019-03-03T02:38:16.454Z,91.70
2019-03-03T02:39:21.238Z,91.70
2019-03-03T02:40:25.702Z,91.60
2019-03-03T02:41:30.206Z,91.60
2019-03-03T02:42:34.787Z,91.50
2019-03-03T02:43:40.750Z,91.40
2019-03-03T02:44:46.161Z,91.50
2019-03-03T02:45:50.840Z,91.40
2019-03-03T02:46:55.272Z,91.40
2019-03-03T02:47:59.657Z,91.30
2019-03-03T02:49:04.336Z,91.30
2019-03-03T02:50:10.025Z,91.10
2019-03-03T02:51:14.523Z,91.00
2019-03-03T02:52:19.035Z,91.00
2019-03-03T02:53:23.575Z,90.80
2019-03-03T02:54:27.973Z,90.70
2019-03-03T02:55:32.585Z,90.70
2019-03-03T02:56:37.053Z,90.60
2019-03-03T02:57:41.611Z,90.60
2019-03-03T02:58:46.200Z,90.50
2019-03-03T02:59:50.592Z,90.40
2019-03-03T03:01:04.350Z,90.40
2019-03-03T03:02:15.771Z,90.40
2019-03-03T03:03:21.260Z,90.20
2019-03-03T03:04:26.361Z,90.00
2019-03-03T03:06:08.274Z,90.00
2019-03-03T03:07:17.358Z,90.00
2019-03-03T03:08:25.914Z,89.80
2019-03-03T03:09:49.392Z,89.90
2019-03-03T03:11:16.274Z,90.00
2019-03-03T03:12:29.576Z,89.80
2019-03-03T03:13:57.766Z,89.70
2019-03-03T03:15:07.727Z,89.30
2019-03-03T03:16:20.945Z,89.50
2019-03-03T03:17:32.097Z,90.00
2019-03-03T03:18:58.344Z,89.20
2019-03-03T03:20:19.085Z,89.10
2019-03-03T03:21:41.634Z,89.10
2019-03-03T03:23:05.159Z,88.80
2019-03-03T03:24:27.746Z,88.80
2019-03-03T03:25:42.173Z,88.80
2019-03-03T03:26:58.469Z,89.00
2019-03-03T03:28:25.110Z,89.00
2019-03-03T03:29:36.329Z,89.00
2019-03-03T03:30:52.413Z,88.80
2019-03-03T03:32:15.208Z,88.70
2019-03-03T03:33:24.325Z,88.50
2019-03-03T03:34:39.895Z,88.70
2019-03-03T03:36:02.342Z,88.50
2019-03-03T03:37:12.865Z,88.40
2019-03-03T03:38:29.302Z,88.20
2019-03-03T03:39:51.810Z,87.90
2019-03-03T03:41:05.175Z,87.70
2019-03-03T03:42:18.564Z,88.50
2019-03-03T03:43:33.884Z,87.60
2019-03-03T03:45:12.692Z,87.50
2019-03-03T03:46:54.784Z,87.50
2019-03-03T03:48:17.318Z,87.40
2019-03-03T03:49:38.342Z,87.50
2019-03-03T03:50:58.294Z,87.60
2019-03-03T03:52:20.875Z,87.60
2019-03-03T03:53:44.456Z,87.70
2019-03-03T03:55:26.396Z,87.60
2019-03-03T03:56:46.937Z,87.50
2019-03-03T03:58:04.011Z,87.10
2019-03-03T03:59:25.978Z,87.20
2019-03-03T04:00:48.586Z,87.20
2019-03-03T04:02:08.512Z,87.10
2019-03-03T04:03:38.080Z,86.80
2019-03-03T04:04:57.821Z,86.80
2019-03-03T04:06:16.464Z,85.70
2019-03-03T04:07:30.733Z,85.60
2019-03-03T04:08:49.659Z,85.50
2019-03-03T04:09:58.982Z,85.40
2019-03-03T04:11:21.283Z,85.50
2019-03-03T04:12:33.405Z,85.70
2019-03-03T04:14:00.152Z,85.60
2019-03-03T04:15:19.592Z,85.60
2019-03-03T04:16:43.339Z,85.70
2019-03-03T04:18:13.142Z,85.50
2019-03-03T04:19:42.986Z,85.50
2019-03-03T04:20:55.627Z,85.40
2019-03-03T04:22:19.283Z,86.60
2019-03-03T04:23:42.827Z,85.50
2019-03-03T04:24:52.668Z,85.50
2019-03-03T04:26:11.905Z,85.50
2019-03-03T04:27:35.338Z,85.60
2019-03-03T04:28:58.811Z,86.70
2019-03-03T04:30:14.672Z,86.80
2019-03-03T04:31:28.852Z,86.90
2019-03-03T04:32:42.704Z,87.00
2019-03-03T04:33:59.380Z,86.90
2019-03-03T04:35:12.194Z,86.90
2019-03-03T04:36:27.344Z,86.90
2019-03-03T04:37:57.054Z,86.80
2019-03-03T04:39:26.641Z,85.70
2019-03-03T04:40:39.985Z,86.70
2019-03-03T04:41:59.261Z,85.60
2019-03-03T04:43:15.511Z,86.70
2019-03-03T04:44:25.363Z,86.70
2019-03-03T04:45:37.235Z,86.80
2019-03-03T04:46:49.414Z,85.70
2019-03-03T04:48:16.583Z,85.80
2019-03-03T04:49:38.859Z,85.70
2019-03-03T04:50:51.741Z,85.60
2019-03-03T04:52:18.840Z,85.50
2019-03-03T04:53:30.870Z,85.40
2019-03-03T04:54:54.663Z,85.40
2019-03-03T04:56:11.832Z,85.40
2019-03-03T04:57:41.184Z,85.30
2019-03-03T04:59:05.014Z,85.40
2019-03-03T05:00:29.983Z,85.40
2019-03-03T05:01:43.179Z,85.40
2019-03-03T05:02:57.922Z,85.40
2019-03-03T05:04:13.709Z,85.30
2019-03-03T05:05:37.427Z,85.30
2019-03-03T05:06:51.519Z,85.70
2019-03-03T05:08:04.198Z,86.50
2019-03-03T05:09:28.977Z,86.70
2019-03-03T05:10:45.479Z,86.80
2019-03-03T05:12:52.113Z,87.80
2019-03-03T05:14:05.371Z,88.90
2019-03-03T05:15:39.417Z,90.20
2019-03-03T05:17:06.066Z,90.40
2019-03-03T05:18:23.923Z,90.50
2019-03-03T05:19:32.352Z,90.70
2019-03-03T05:20:47.488Z,90.70
2019-03-03T05:21:52.001Z,90.60
2019-03-03T05:22:56.515Z,90.70
2019-03-03T05:24:00.993Z,91.50
2019-03-03T05:25:05.533Z,92.10
2019-03-03T05:26:09.975Z,93.70
2019-03-03T05:27:14.283Z,94.30
2019-03-03T05:28:18.697Z,96.20
2019-03-03T05:29:22.999Z,96.80
2019-03-03T05:30:27.349Z,96.30
2019-03-03T05:31:31.861Z,96.40
2019-03-03T05:32:36.306Z,96.40
2019-03-03T05:33:40.772Z,96.80
2019-03-03T05:34:45.232Z,97.20
2019-03-03T05:35:49.592Z,97.70
2019-03-03T05:36:53.954Z,98.20
2019-03-03T05:37:58.425Z,98.80
2019-03-03T05:39:03.056Z,99.00
2019-03-03T05:40:07.596Z,99.20
2019-03-03T05:41:11.916Z,99.30
2019-03-03T05:42:16.327Z,99.50
2019-03-03T05:43:20.757Z,99.60
2019-03-03T05:44:25.086Z,99.70
2019-03-03T05:45:29.452Z,99.90
2019-03-03T05:46:33.999Z,99.90
2019-03-03T05:47:38.557Z,99.90
2019-03-03T05:48:42.971Z,99.90
2019-03-03T05:49:47.359Z,99.90
2019-03-03T05:50:51.811Z,99.90
2019-03-03T05:51:56.197Z,99.90
2019-03-03T05:53:00.836Z,99.90
2019-03-03T05:54:05.341Z,99.90
2019-03-03T05:55:09.806Z,99.90
2019-03-03T05:56:14.240Z,99.90
2019-03-03T05:57:18.723Z,99.90
2019-03-03T05:58:23.064Z,99.90
2019-03-03T05:59:30.660Z,99.90
2019-03-03T06:00:35.015Z,99.90
2019-03-03T06:01:39.648Z,99.90
2019-03-03T06:02:44.095Z,99.90
2019-03-03T06:03:48.483Z,99.90
2019-03-03T06:04:52.845Z,99.90
2019-03-03T06:05:57.160Z,99.90
2019-03-03T06:07:01.505Z,99.90
2019-03-03T06:08:09.438Z,99.90
2019-03-03T06:09:13.850Z,99.90
2019-03-03T06:10:18.231Z,99.90
2019-03-03T06:11:22.752Z,99.90
2019-03-03T06:12:27.262Z,99.90
2019-03-03T06:13:31.650Z,99.90
2019-03-03T06:14:36.080Z,99.90
2019-03-03T06:15:41.848Z,99.90
2019-03-03T06:16:46.347Z,99.90
2019-03-03T06:17:51.225Z,99.90
2019-03-03T06:18:55.746Z,99.90
2019-03-03T06:20:00.131Z,99.90
2019-03-03T06:21:04.718Z,99.90
2019-03-03T06:22:09.113Z,99.90
2019-03-03T06:23:13.540Z,99.90
2019-03-03T06:24:17.863Z,99.90
2019-03-03T06:25:22.387Z,99.90
2019-03-03T06:26:26.775Z,99.90
2019-03-03T06:27:31.184Z,99.90
2019-03-03T06:28:35.562Z,99.90
2019-03-03T06:29:39.911Z,99.90
2019-03-03T06:30:45.212Z,99.90
2019-03-03T06:31:49.715Z,99.90
2019-03-03T06:32:54.123Z,99.90
2019-03-03T06:33:58.667Z,99.90
2019-03-03T06:35:03.116Z,99.90
2019-03-03T06:36:07.520Z,99.90
2019-03-03T06:37:11.884Z,99.90
2019-03-03T06:38:16.282Z,99.90
2019-03-03T06:39:20.811Z,99.90
2019-03-03T06:40:25.208Z,99.90
2019-03-03T06:41:29.681Z,99.90
2019-03-03T06:42:34.083Z,99.90
2019-03-03T06:43:38.448Z,99.90
2019-03-03T06:44:42.896Z,99.90
2019-03-03T06:45:47.227Z,99.90
2019-03-03T06:46:51.609Z,99.90
2019-03-03T06:47:56.029Z,99.90
2019-03-03T06:49:00.343Z,99.90
2019-03-03T06:50:05.516Z,99.90
2019-03-03T06:51:09.878Z,99.90
2019-03-03T06:52:14.197Z,99.90
2019-03-03T06:53:18.642Z,99.90
2019-03-03T06:54:22.989Z,99.90
2019-03-03T06:55:27.348Z,99.90
2019-03-03T06:56:31.666Z,99.90
2019-03-03T06:57:36.149Z,99.90
2019-03-03T06:58:40.470Z,99.90
2019-03-03T06:59:44.964Z,99.90
2019-03-03T07:00:49.507Z,99.90
2019-03-03T07:01:53.868Z,99.90
2019-03-03T07:02:58.217Z,99.90
2019-03-03T07:04:02.632Z,99.90
2019-03-03T07:05:13.874Z,99.90
2019-03-03T07:06:18.319Z,99.90
2019-03-03T07:07:22.728Z,99.90
2019-03-03T07:08:27.131Z,99.90
2019-03-03T07:09:31.584Z,99.90
2019-03-03T07:10:36.085Z,99.90
2019-03-03T07:11:40.431Z,99.90
2019-03-03T07:12:44.839Z,99.90
2019-03-03T07:13:49.316Z,99.90
2019-03-03T07:14:53.699Z,99.90
2019-03-03T07:15:58.154Z,99.90
2019-03-03T07:17:02.652Z,99.90
2019-03-03T07:18:07.135Z,99.90
2019-03-03T07:19:11.588Z,99.90
2019-03-03T07:20:16.648Z,99.90
2019-03-03T07:21:21.088Z,99.90
2019-03-03T07:22:25.450Z,99.90
2019-03-03T07:23:29.847Z,99.90
2019-03-03T07:24:34.176Z,99.90
2019-03-03T07:25:38.534Z,99.90
2019-03-03T07:26:42.849Z,99.90
2019-03-03T07:27:47.247Z,99.90
2019-03-03T07:28:52.052Z,99.90
2019-03-03T07:29:56.391Z,99.90
2019-03-03T07:31:00.793Z,99.90
2019-03-03T07:32:05.182Z,99.90
2019-03-03T07:33:18.684Z,99.90
2019-03-03T07:34:23.035Z,99.90
2019-03-03T07:35:27.500Z,99.90
2019-03-03T07:36:32.003Z,99.90
2019-03-03T07:37:36.418Z,99.90
2019-03-03T07:38:40.897Z,99.90
2019-03-03T07:39:45.283Z,99.90
2019-03-03T07:40:50.761Z,99.90
2019-03-03T07:41:55.087Z,99.90
2019-03-03T07:42:59.491Z,99.90
2019-03-03T07:44:03.916Z,99.90
2019-03-03T07:45:09.511Z,99.90
2019-03-03T07:46:14.064Z,99.90
2019-03-03T07:47:18.496Z,99.90
2019-03-03T07:48:22.959Z,99.90
2019-03-03T07:49:27.366Z,99.90
2019-03-03T07:50:31.674Z,99.90
2019-03-03T07:51:38.037Z,99.90
2019-03-03T07:52:43.304Z,99.90
2019-03-03T07:53:48.329Z,99.90
2019-03-03T07:54:53.324Z,99.90
2019-03-03T07:55:57.697Z,99.90
2019-03-03T07:57:01.994Z,99.90
2019-03-03T07:58:06.821Z,99.90
2019-03-03T07:59:11.153Z,99.90
2019-03-03T08:00:15.883Z,99.90
2019-03-03T08:01:20.424Z,99.90
2019-03-03T08:02:24.755Z,99.90
2019-03-03T08:03:29.079Z,99.90
2019-03-03T08:04:33.392Z,99.90
2019-03-03T08:05:37.717Z,99.90
2019-03-03T08:06:42.114Z,99.90
2019-03-03T08:07:46.571Z,99.90
2019-03-03T08:08:50.963Z,99.90
2019-03-03T08:09:55.474Z,99.90
2019-03-03T08:10:59.818Z,99.90
2019-03-03T08:12:04.356Z,99.90
2019-03-03T08:13:09.482Z,99.90
2019-03-03T08:14:14.124Z,99.90
2019-03-03T08:15:18.714Z,99.90
2019-03-03T08:16:23.095Z,99.90
2019-03-03T08:17:27.531Z,99.90
2019-03-03T08:18:31.903Z,99.90
2019-03-03T08:19:36.336Z,99.90
2019-03-03T08:20:41.358Z,99.90
2019-03-03T08:21:45.720Z,99.90
2019-03-03T08:22:50.019Z,99.90
2019-03-03T08:23:54.325Z,99.90
2019-03-03T08:24:58.643Z,99.90
2019-03-03T08:26:03.108Z,99.90
2019-03-03T08:27:07.450Z,99.90
2019-03-03T08:28:11.751Z,99.90
2019-03-03T08:29:16.093Z,99.90
2019-03-03T08:30:20.584Z,99.90
2019-03-03T08:31:24.932Z,99.90
2019-03-03T08:32:29.316Z,99.90
2019-03-03T08:33:33.646Z,99.90
2019-03-03T08:34:41.329Z,99.90
2019-03-03T08:35:45.919Z,99.90
2019-03-03T08:36:50.529Z,99.90
2019-03-03T08:37:55.103Z,99.90
2019-03-03T08:38:59.484Z,99.90
2019-03-03T08:40:03.935Z,99.90
2019-03-03T08:41:08.291Z,99.90
2019-03-03T08:42:35.199Z,99.90
2019-03-03T08:43:45.692Z,99.90
2019-03-03T08:45:20.274Z,99.90
2019-03-03T08:46:59.249Z,99.90
2019-03-03T08:48:09.350Z,99.90
2019-03-03T08:49:24.834Z,99.90
2019-03-03T08:50:33.658Z,99.90
2019-03-03T08:52:01.000Z,99.90
2019-03-03T08:53:13.700Z,99.90
2019-03-03T08:54:37.120Z,99.90
2019-03-03T08:55:55.327Z,99.90
2019-03-03T08:57:17.656Z,99.90
2019-03-03T08:58:27.852Z,99.90
2019-03-03T08:59:50.622Z,99.90
2019-03-03T09:01:12.658Z,99.90
2019-03-03T09:02:45.429Z,99.90
2019-03-03T09:04:20.993Z,99.90
2019-03-03T09:05:33.857Z,99.90
2019-03-03T09:06:43.607Z,99.90
2019-03-03T09:08:19.162Z,99.90
2019-03-03T09:09:38.505Z,99.90
2019-03-03T09:11:08.309Z,99.90
2019-03-03T09:12:25.182Z,99.90
2019-03-03T09:13:54.403Z,99.90
2019-03-03T09:15:23.748Z,99.90
2019-03-03T09:16:38.180Z,99.90
2019-03-03T09:18:07.928Z,99.90
2019-03-03T09:19:31.392Z,99.90
2019-03-03T09:20:54.799Z,99.90
2019-03-03T09:22:21.404Z,99.90
2019-03-03T09:23:45.455Z,99.90
2019-03-03T09:25:08.999Z,99.90
2019-03-03T09:26:35.351Z,99.90
2019-03-03T09:27:53.793Z,99.90
2019-03-03T09:29:17.851Z,99.90
2019-03-03T09:30:50.618Z,99.90
2019-03-03T09:32:14.031Z,99.90
2019-03-03T09:33:44.653Z,99.90
2019-03-03T09:35:02.231Z,99.90
2019-03-03T09:36:13.560Z,99.90
2019-03-03T09:37:33.373Z,99.90
2019-03-03T09:39:12.143Z,99.90
2019-03-03T09:40:53.913Z,99.90
2019-03-03T09:42:11.760Z,99.90
2019-03-03T09:43:35.547Z,99.90
2019-03-03T09:44:58.999Z,99.90
2019-03-03T09:46:14.440Z,99.90
2019-03-03T09:47:30.262Z,99.90
2019-03-03T09:48:53.625Z,99.90
2019-03-03T09:50:20.169Z,99.90
2019-03-03T09:51:46.494Z,99.90
2019-03-03T09:53:07.572Z,99.90
2019-03-03T09:54:34.235Z,99.90
2019-03-03T09:55:57.669Z,99.90
2019-03-03T09:57:30.176Z,99.90
2019-03-03T09:58:46.487Z,99.90
2019-03-03T09:59:57.352Z,99.90
2019-03-03T10:01:23.699Z,99.90
2019-03-03T10:03:02.533Z,99.90
2019-03-03T10:04:35.454Z,99.90
2019-03-03T10:06:14.245Z,99.90
2019-03-03T10:07:28.118Z,99.90
2019-03-03T10:08:54.584Z,99.90
2019-03-03T10:10:10.615Z,99.90
2019-03-03T10:11:34.022Z,99.90
2019-03-03T10:12:46.881Z,99.90
2019-03-03T10:14:13.205Z,99.90
2019-03-03T10:15:32.131Z,99.90
2019-03-03T10:16:55.921Z,99.90
2019-03-03T10:18:07.831Z,99.90
2019-03-03T10:19:30.742Z,99.90
2019-03-03T10:20:57.363Z,99.90
2019-03-03T10:22:21.031Z,99.90
2019-03-03T10:23:33.297Z,99.90
2019-03-03T10:24:45.205Z,99.90
2019-03-03T10:26:02.232Z,99.90
2019-03-03T10:27:31.980Z,99.90
2019-03-03T10:28:47.092Z,99.90
2019-03-03T10:30:08.451Z,99.90
2019-03-03T10:31:19.734Z,99.90
2019-03-03T10:32:35.207Z,99.90
2019-03-03T10:34:01.801Z,99.90
2019-03-03T10:35:28.663Z,99.90
2019-03-03T10:36:58.175Z,99.90
2019-03-03T10:38:10.767Z,99.90
2019-03-03T10:39:29.327Z,99.90
2019-03-03T10:40:38.642Z,99.90
2019-03-03T10:41:59.170Z,99.90
2019-03-03T10:43:35.156Z,99.90
2019-03-03T10:45:11.112Z,99.90
2019-03-03T10:46:33.639Z,99.90
2019-03-03T10:47:51.847Z,99.90
2019-03-03T10:49:01.844Z,99.90
2019-03-03T10:50:31.649Z,99.90
2019-03-03T10:51:55.214Z,99.90
2019-03-03T10:53:10.274Z,99.90
2019-03-03T10:54:27.502Z,99.90
2019-03-03T10:55:40.208Z,99.90
2019-03-03T10:56:54.551Z,99.90
2019-03-03T10:58:10.429Z,99.90
2019-03-03T10:59:34.983Z,99.90
2019-03-03T11:00:57.410Z,99.90
2019-03-03T11:02:19.498Z,99.90
2019-03-03T11:03:36.855Z,99.90
2019-03-03T11:04:58.108Z,99.90
2019-03-03T11:06:14.031Z,99.90
2019-03-03T11:07:30.124Z,99.90
2019-03-03T11:08:53.567Z,99.90
2019-03-03T11:10:05.376Z,99.90
2019-03-03T11:11:21.019Z,99.90
2019-03-03T11:12:34.964Z,99.90
2019-03-03T11:13:56.657Z,99.90
2019-03-03T11:15:18.184Z,99.90
2019-03-03T11:16:44.337Z,99.90
2019-03-03T11:18:04.167Z,99.90
2019-03-03T11:19:30.475Z,99.90
2019-03-03T11:20:48.318Z,99.90
2019-03-03T11:22:01.749Z,99.90
2019-03-03T11:23:20.183Z,99.90
2019-03-03T11:24:42.623Z,99.90
2019-03-03T11:26:06.195Z,99.90
2019-03-03T11:27:20.411Z,99.90
2019-03-03T11:28:37.133Z,99.90
2019-03-03T11:30:04.735Z,99.90
2019-03-03T11:31:18.411Z,99.90
2019-03-03T11:32:36.204Z,99.90
2019-03-03T11:33:49.219Z,99.90
2019-03-03T11:35:11.571Z,99.90
2019-03-03T11:36:35.084Z,99.90
2019-03-03T11:37:58.720Z,99.90
2019-03-03T11:39:21.723Z,99.90
2019-03-03T11:40:48.226Z,99.90
2019-03-03T11:42:06.821Z,99.90
2019-03-03T11:43:29.019Z,99.90
2019-03-03T11:44:44.290Z,99.90
2019-03-03T11:46:06.427Z,99.90
2019-03-03T11:47:21.564Z,99.90
2019-03-03T11:48:33.761Z,99.90
2019-03-03T11:49:55.889Z,99.90
2019-03-03T11:51:04.617Z,99.90
2019-03-03T11:52:22.325Z,99.90
2019-03-03T11:53:44.811Z,99.90
2019-03-03T11:55:06.764Z,99.90
2019-03-03T11:56:16.529Z,99.90
2019-03-03T11:57:39.942Z,99.90
2019-03-03T11:58:56.839Z,99.90
2019-03-03T12:00:20.528Z,99.90
2019-03-03T12:01:47.283Z,99.90
2019-03-03T12:03:29.148Z,99.90
2019-03-03T12:04:43.398Z,99.90
2019-03-03T12:06:13.140Z,99.90
2019-03-03T12:07:38.075Z,99.90
2019-03-03T12:09:00.387Z,99.90
2019-03-03T12:10:14.319Z,99.90
2019-03-03T12:11:25.854Z,99.90
2019-03-03T12:12:49.451Z,99.90
2019-03-03T12:14:23.255Z,99.90
2019-03-03T12:15:33.543Z,99.90
2019-03-03T12:17:03.200Z,99.90
2019-03-03T12:18:14.607Z,99.90
2019-03-03T12:19:39.375Z,99.90
2019-03-03T12:20:51.504Z,99.90
2019-03-03T12:22:13.751Z,99.90
2019-03-03T12:23:52.739Z,99.90
2019-03-03T12:25:14.535Z,99.90
2019-03-03T12:26:33.903Z,99.90
2019-03-03T12:28:09.352Z,99.90
2019-03-03T12:29:28.901Z,99.90
2019-03-03T12:30:52.587Z,99.90
2019-03-03T12:32:07.545Z,99.90
2019-03-03T12:33:27.275Z,99.90
2019-03-03T12:34:44.198Z,99.90
2019-03-03T12:35:55.497Z,99.90
2019-03-03T12:37:12.901Z,99.90
2019-03-03T12:38:42.984Z,99.90
2019-03-03T12:39:56.095Z,99.90
2019-03-03T12:41:08.587Z,99.90
2019-03-03T12:42:29.394Z,99.90
2019-03-03T12:43:40.571Z,99.90
2019-03-03T12:45:05.550Z,99.90
2019-03-03T12:46:36.067Z,99.90
2019-03-03T12:48:00.044Z,99.90
2019-03-03T12:49:13.085Z,99.90
2019-03-03T12:50:34.472Z,99.90
2019-03-03T12:52:09.899Z,99.90
2019-03-03T12:53:32.140Z,99.90
2019-03-03T12:55:08.074Z,99.90
2019-03-03T12:56:30.652Z,99.90
2019-03-03T12:57:54.139Z,99.90
2019-03-03T12:59:16.233Z,99.90
2019-03-03T13:00:49.042Z,99.90
2019-03-03T13:02:10.695Z,99.90
2019-03-03T13:03:28.190Z,99.90
2019-03-03T13:04:54.752Z,99.90
2019-03-03T13:06:27.075Z,99.90
2019-03-03T13:07:39.063Z,99.90
2019-03-03T13:09:08.479Z,99.90
2019-03-03T13:10:30.758Z,99.90
2019-03-03T13:11:44.889Z,99.90
2019-03-03T13:12:55.203Z,99.90
2019-03-03T13:14:22.836Z,99.90
2019-03-03T13:15:37.381Z,99.90
2019-03-03T13:16:59.713Z,99.90
2019-03-03T13:18:14.270Z,99.90
2019-03-03T13:19:37.816Z,99.90
2019-03-03T13:20:53.592Z,99.90
2019-03-03T13:22:13.051Z,99.90
2019-03-03T13:23:40.395Z,99.90
2019-03-03T13:25:02.544Z,99.90
2019-03-03T13:26:25.876Z,99.90
2019-03-03T13:27:49.392Z,99.90
2019-03-03T13:29:13.707Z,99.90
2019-03-03T13:30:49.445Z,99.90
2019-03-03T13:32:19.127Z,99.90
2019-03-03T13:33:41.385Z,99.90
2019-03-03T13:34:57.368Z,99.90
2019-03-03T13:36:19.599Z,99.90
2019-03-03T13:37:31.607Z,99.90
2019-03-03T13:38:55.036Z,99.90
2019-03-03T13:40:23.444Z,99.90
2019-03-03T13:41:48.446Z,99.90
2019-03-03T13:42:59.241Z,99.90
2019-03-03T13:44:03.818Z,99.90
2019-03-03T13:45:09.761Z,99.90
2019-03-03T13:46:14.527Z,99.90
2019-03-03T13:47:19.143Z,99.90
2019-03-03T13:48:24.285Z,99.90
2019-03-03T13:49:28.835Z,99.90
2019-03-03T13:50:33.707Z,99.90
2019-03-03T13:51:38.173Z,99.90
2019-03-03T13:52:42.796Z,99.90
2019-03-03T13:53:47.274Z,99.90
2019-03-03T13:54:51.635Z,99.90
2019-03-03T13:55:56.361Z,99.90
2019-03-03T13:57:00.742Z,99.90
2019-03-03T13:58:05.300Z,99.90
2019-03-03T13:59:09.871Z,99.90
2019-03-03T14:00:19.362Z,99.90
2019-03-03T14:01:23.690Z,99.90
2019-03-03T14:02:28.089Z,99.90
2019-03-03T14:03:32.486Z,99.90
2019-03-03T14:04:36.911Z,99.90
2019-03-03T14:05:41.389Z,99.90
2019-03-03T14:06:45.897Z,99.90
2019-03-03T14:07:52.140Z,99.90
2019-03-03T14:08:56.476Z,99.90
2019-03-03T14:10:00.878Z,99.90
2019-03-03T14:11:05.507Z,99.90
2019-03-03T14:12:10.024Z,99.90
2019-03-03T14:13:14.494Z,99.90
2019-03-03T14:14:18.979Z,99.90
2019-03-03T14:15:23.496Z,99.90
2019-03-03T14:16:28.109Z,99.90
2019-03-03T14:17:32.579Z,99.90
2019-03-03T14:18:37.009Z,99.90
2019-03-03T14:19:41.421Z,99.90
2019-03-03T14:20:45.960Z,99.90
2019-03-03T14:21:50.338Z,99.90
2019-03-03T14:22:54.878Z,99.90
2019-03-03T14:23:59.390Z,99.90
2019-03-03T14:25:04.161Z,99.90
2019-03-03T14:26:08.566Z,99.90
2019-03-03T14:27:13.034Z,99.90
2019-03-03T14:28:17.436Z,99.90
2019-03-03T14:29:21.760Z,99.90
2019-03-03T14:30:26.570Z,99.90
2019-03-03T14:31:30.924Z,99.90
2019-03-03T14:32:35.343Z,99.90
2019-03-03T14:33:39.655Z,99.90
2019-03-03T14:34:44.073Z,99.90
2019-03-03T14:35:48.473Z,99.90
2019-03-03T14:36:52.940Z,99.90
2019-03-03T14:37:57.404Z,99.90
2019-03-03T14:39:01.785Z,99.90
2019-03-03T14:40:07.048Z,99.90
2019-03-03T14:41:11.459Z,99.90
2019-03-03T14:42:16.132Z,99.90
2019-03-03T14:43:20.536Z,99.90
2019-03-03T14:44:24.887Z,99.90
2019-03-03T14:45:29.499Z,99.90
2019-03-03T14:46:33.849Z,99.90
2019-03-03T14:47:38.480Z,99.90
2019-03-03T14:48:43.108Z,99.90
2019-03-03T14:49:47.860Z,99.90
2019-03-03T14:50:52.538Z,99.90
2019-03-03T14:51:57.157Z,99.90
2019-03-03T14:53:01.607Z,99.90
2019-03-03T14:54:06.055Z,99.90
2019-03-03T14:55:12.914Z,99.90
2019-03-03T14:56:17.485Z,99.90
2019-03-03T14:57:21.884Z,99.90
2019-03-03T14:58:26.221Z,99.90
2019-03-03T14:59:30.541Z,99.90
2019-03-03T15:00:35.060Z,99.90
2019-03-03T15:01:39.459Z,99.90
2019-03-03T15:02:43.982Z,99.90
2019-03-03T15:03:48.468Z,99.90
2019-03-03T15:04:52.880Z,99.90
2019-03-03T15:05:57.302Z,99.90
2019-03-03T15:07:01.955Z,99.90
2019-03-03T15:08:06.433Z,99.90
2019-03-03T15:09:20.456Z,99.90
2019-03-03T15:10:24.803Z,99.90
2019-03-03T15:11:29.315Z,99.90
2019-03-03T15:12:33.680Z,99.90
2019-03-03T15:13:38.105Z,99.90
2019-03-03T15:14:42.545Z,99.90
2019-03-03T15:15:47.168Z,99.90
2019-03-03T15:16:51.706Z,99.90
2019-03-03T15:17:56.357Z,99.90
2019-03-03T15:19:00.677Z,99.90
2019-03-03T15:20:05.504Z,99.90
2019-03-03T15:21:10.094Z,99.90
2019-03-03T15:22:15.063Z,99.90
2019-03-03T15:23:19.628Z,99.90
2019-03-03T15:24:24.079Z,99.90
2019-03-03T15:25:28.703Z,99.90
2019-03-03T15:26:33.112Z,99.90
2019-03-03T15:27:37.534Z,99.90
2019-03-03T15:28:42.099Z,99.90
2019-03-03T15:29:46.550Z,99.90
2019-03-03T15:30:51.040Z,99.90
2019-03-03T15:31:55.410Z,99.90